sensor_id;sensor_type;location;lat;lon;timestamp;P1;durP1;ratioP1;P2;durP2;ratioP2
77722;SDS011;67811;42.656;23.394;2024-01-11T00:02:11;11.07;;;5.63;;
77722;SDS011;67811;42.656;23.394;2024-01-11T00:06:16;12.47;;;6.37;;
77722;SDS011;67811;42.656;23.394;2024-01-11T00:10:22;7.73;;;4.10;;
77722;SDS011;67811;42.656;23.394;2024-01-11T00:14:28;15.02;;;7.00;;
77722;SDS011;67811;42.656;23.394;2024-01-11T00:18:33;17.20;;;8.50;;
77722;SDS011;67811;42.656;23.394;2024-01-11T00:22:38;14.27;;;7.00;;
77722;SDS011;67811;42.656;23.394;2024-01-11T00:26:43;14.67;;;6.47;;
77722;SDS011;67811;42.656;23.394;2024-01-11T00:30:49;17.23;;;8.20;;
77722;SDS011;67811;42.656;23.394;2024-01-11T00:34:54;23.27;;;12.43;;
77722;SDS011;67811;42.656;23.394;2024-01-11T00:38:59;16.70;;;8.60;;
77722;SDS011;67811;42.656;23.394;2024-01-11T00:43:05;19.93;;;8.37;;
77722;SDS011;67811;42.656;23.394;2024-01-11T00:47:10;9.17;;;4.67;;
77722;SDS011;67811;42.656;23.394;2024-01-11T00:51:15;4.33;;;3.23;;
77722;SDS011;67811;42.656;23.394;2024-01-11T00:55:21;5.50;;;2.50;;
77722;SDS011;67811;42.656;23.394;2024-01-11T00:59:26;2.83;;;2.00;;
77722;SDS011;67811;42.656;23.394;2024-01-11T01:03:31;9.83;;;4.80;;
77722;SDS011;67811;42.656;23.394;2024-01-11T01:07:37;5.00;;;2.93;;
77722;SDS011;67811;42.656;23.394;2024-01-11T01:11:42;6.60;;;2.97;;
77722;SDS011;67811;42.656;23.394;2024-01-11T01:15:47;6.80;;;4.00;;
77722;SDS011;67811;42.656;23.394;2024-01-11T01:19:53;8.13;;;2.93;;
77722;SDS011;67811;42.656;23.394;2024-01-11T01:23:58;5.70;;;3.17;;
77722;SDS011;67811;42.656;23.394;2024-01-11T01:28:03;4.00;;;2.33;;
77722;SDS011;67811;42.656;23.394;2024-01-11T01:32:09;7.43;;;5.07;;
77722;SDS011;67811;42.656;23.394;2024-01-11T01:36:15;9.75;;;3.17;;
77722;SDS011;67811;42.656;23.394;2024-01-11T01:40:20;15.27;;;5.93;;
77722;SDS011;67811;42.656;23.394;2024-01-11T01:44:26;7.37;;;4.03;;
77722;SDS011;67811;42.656;23.394;2024-01-11T01:48:31;5.30;;;4.23;;
77722;SDS011;67811;42.656;23.394;2024-01-11T01:52:38;7.35;;;3.53;;
77722;SDS011;67811;42.656;23.394;2024-01-11T01:56:47;11.00;;;5.45;;
77722;SDS011;67811;42.656;23.394;2024-01-11T02:00:53;18.77;;;7.43;;
77722;SDS011;67811;42.656;23.394;2024-01-11T02:04:58;9.33;;;6.37;;
77722;SDS011;67811;42.656;23.394;2024-01-11T02:09:04;10.40;;;5.28;;
77722;SDS011;67811;42.656;23.394;2024-01-11T02:13:11;9.60;;;5.30;;
77722;SDS011;67811;42.656;23.394;2024-01-11T02:17:16;10.10;;;5.20;;
77722;SDS011;67811;42.656;23.394;2024-01-11T02:21:22;10.17;;;5.07;;
77722;SDS011;67811;42.656;23.394;2024-01-11T02:25:28;12.38;;;5.28;;
77722;SDS011;67811;42.656;23.394;2024-01-11T02:29:34;10.90;;;5.30;;
77722;SDS011;67811;42.656;23.394;2024-01-11T02:33:39;10.13;;;3.90;;
77722;SDS011;67811;42.656;23.394;2024-01-11T02:37:45;8.87;;;4.67;;
77722;SDS011;67811;42.656;23.394;2024-01-11T02:41:52;15.25;;;8.35;;
77722;SDS011;67811;42.656;23.394;2024-01-11T02:45:58;25.02;;;8.85;;
77722;SDS011;67811;42.656;23.394;2024-01-11T02:50:03;24.67;;;11.00;;
77722;SDS011;67811;42.656;23.394;2024-01-11T02:54:09;30.02;;;14.38;;
77722;SDS011;67811;42.656;23.394;2024-01-11T02:58:14;21.07;;;11.93;;
77722;SDS011;67811;42.656;23.394;2024-01-11T03:02:20;25.10;;;11.43;;
77722;SDS011;67811;42.656;23.394;2024-01-11T03:06:25;8.05;;;3.45;;
77722;SDS011;67811;42.656;23.394;2024-01-11T03:10:31;5.23;;;2.40;;
77722;SDS011;67811;42.656;23.394;2024-01-11T03:14:36;7.47;;;3.90;;
77722;SDS011;67811;42.656;23.394;2024-01-11T03:18:41;4.20;;;2.43;;
77722;SDS011;67811;42.656;23.394;2024-01-11T03:22:47;6.93;;;3.30;;
77722;SDS011;67811;42.656;23.394;2024-01-11T03:26:52;5.50;;;3.20;;
77722;SDS011;67811;42.656;23.394;2024-01-11T03:30:57;5.30;;;1.77;;
77722;SDS011;67811;42.656;23.394;2024-01-11T03:35:02;8.83;;;3.20;;
77722;SDS011;67811;42.656;23.394;2024-01-11T03:39:08;5.13;;;2.93;;
77722;SDS011;67811;42.656;23.394;2024-01-11T03:43:16;10.57;;;5.53;;
77722;SDS011;67811;42.656;23.394;2024-01-11T03:47:22;9.43;;;4.32;;
77722;SDS011;67811;42.656;23.394;2024-01-11T03:51:27;17.30;;;6.90;;
77722;SDS011;67811;42.656;23.394;2024-01-11T03:55:33;11.27;;;5.10;;
77722;SDS011;67811;42.656;23.394;2024-01-11T03:59:38;24.63;;;8.63;;
77722;SDS011;67811;42.656;23.394;2024-01-11T04:03:44;25.85;;;11.00;;
77722;SDS011;67811;42.656;23.394;2024-01-11T04:07:50;5.83;;;5.20;;
77722;SDS011;67811;42.656;23.394;2024-01-11T04:11:55;11.80;;;3.70;;
77722;SDS011;67811;42.656;23.394;2024-01-11T04:16:03;7.03;;;4.00;;
77722;SDS011;67811;42.656;23.394;2024-01-11T04:20:10;12.88;;;6.55;;
77722;SDS011;67811;42.656;23.394;2024-01-11T04:24:15;7.78;;;3.80;;
77722;SDS011;67811;42.656;23.394;2024-01-11T04:28:20;8.20;;;4.93;;
77722;SDS011;67811;42.656;23.394;2024-01-11T04:32:26;13.27;;;4.93;;
77722;SDS011;67811;42.656;23.394;2024-01-11T04:36:31;12.50;;;5.00;;
77722;SDS011;67811;42.656;23.394;2024-01-11T04:40:36;11.10;;;5.70;;
77722;SDS011;67811;42.656;23.394;2024-01-11T04:44:41;12.57;;;7.30;;
77722;SDS011;67811;42.656;23.394;2024-01-11T04:48:47;18.27;;;6.67;;
77722;SDS011;67811;42.656;23.394;2024-01-11T04:52:53;8.77;;;4.38;;
77722;SDS011;67811;42.656;23.394;2024-01-11T04:56:58;9.13;;;5.23;;
77722;SDS011;67811;42.656;23.394;2024-01-11T05:01:04;6.47;;;3.40;;
77722;SDS011;67811;42.656;23.394;2024-01-11T05:05:10;14.40;;;5.35;;
77722;SDS011;67811;42.656;23.394;2024-01-11T05:09:16;8.80;;;5.10;;
77722;SDS011;67811;42.656;23.394;2024-01-11T05:13:21;12.40;;;4.87;;
77722;SDS011;67811;42.656;23.394;2024-01-11T05:17:26;10.80;;;5.93;;
77722;SDS011;67811;42.656;23.394;2024-01-11T05:21:32;7.17;;;4.30;;
77722;SDS011;67811;42.656;23.394;2024-01-11T05:25:37;11.80;;;5.53;;
77722;SDS011;67811;42.656;23.394;2024-01-11T05:29:42;13.30;;;4.33;;
77722;SDS011;67811;42.656;23.394;2024-01-11T05:33:47;13.77;;;5.90;;
77722;SDS011;67811;42.656;23.394;2024-01-11T05:37:53;13.43;;;8.23;;
77722;SDS011;67811;42.656;23.394;2024-01-11T05:41:58;19.38;;;10.38;;
77722;SDS011;67811;42.656;23.394;2024-01-11T05:46:04;11.30;;;6.93;;
77722;SDS011;67811;42.656;23.394;2024-01-11T05:50:09;21.40;;;10.07;;
77722;SDS011;67811;42.656;23.394;2024-01-11T05:54:15;16.50;;;9.52;;
77722;SDS011;67811;42.656;23.394;2024-01-11T05:58:20;15.70;;;8.87;;
77722;SDS011;67811;42.656;23.394;2024-01-11T06:02:25;19.47;;;10.10;;
77722;SDS011;67811;42.656;23.394;2024-01-11T06:06:31;21.80;;;10.87;;
77722;SDS011;67811;42.656;23.394;2024-01-11T06:10:36;28.97;;;14.83;;
77722;SDS011;67811;42.656;23.394;2024-01-11T06:14:41;24.60;;;14.93;;
77722;SDS011;67811;42.656;23.394;2024-01-11T06:18:46;25.23;;;14.97;;
77722;SDS011;67811;42.656;23.394;2024-01-11T06:22:52;32.70;;;16.70;;
77722;SDS011;67811;42.656;23.394;2024-01-11T06:26:57;28.47;;;15.17;;
77722;SDS011;67811;42.656;23.394;2024-01-11T06:31:02;30.73;;;13.93;;
77722;SDS011;67811;42.656;23.394;2024-01-11T06:35:08;27.60;;;13.50;;
77722;SDS011;67811;42.656;23.394;2024-01-11T06:39:13;31.83;;;14.40;;
77722;SDS011;67811;42.656;23.394;2024-01-11T06:43:18;30.00;;;16.40;;
77722;SDS011;67811;42.656;23.394;2024-01-11T06:47:24;35.93;;;18.53;;
77722;SDS011;67811;42.656;23.394;2024-01-11T06:51:29;32.07;;;17.03;;
77722;SDS011;67811;42.656;23.394;2024-01-11T06:55:34;31.50;;;16.90;;
77722;SDS011;67811;42.656;23.394;2024-01-11T06:59:40;34.23;;;16.57;;
77722;SDS011;67811;42.656;23.394;2024-01-11T07:03:45;32.53;;;16.67;;
77722;SDS011;67811;42.656;23.394;2024-01-11T07:07:50;42.42;;;19.58;;
77722;SDS011;67811;42.656;23.394;2024-01-11T07:11:56;41.07;;;20.90;;
77722;SDS011;67811;42.656;23.394;2024-01-11T07:16:01;42.97;;;23.27;;
77722;SDS011;67811;42.656;23.394;2024-01-11T07:20:07;47.90;;;26.93;;
77722;SDS011;67811;42.656;23.394;2024-01-11T07:24:12;47.22;;;26.00;;
77722;SDS011;67811;42.656;23.394;2024-01-11T07:28:18;52.70;;;29.20;;
77722;SDS011;67811;42.656;23.394;2024-01-11T07:32:23;36.53;;;21.30;;
77722;SDS011;67811;42.656;23.394;2024-01-11T07:36:29;39.43;;;21.40;;
77722;SDS011;67811;42.656;23.394;2024-01-11T07:40:34;44.33;;;24.50;;
77722;SDS011;67811;42.656;23.394;2024-01-11T07:44:39;39.73;;;21.07;;
77722;SDS011;67811;42.656;23.394;2024-01-11T07:48:44;28.10;;;17.00;;
77722;SDS011;67811;42.656;23.394;2024-01-11T07:52:50;53.67;;;27.60;;
77722;SDS011;67811;42.656;23.394;2024-01-11T07:56:55;47.20;;;18.13;;
77722;SDS011;67811;42.656;23.394;2024-01-11T08:01:00;48.40;;;22.43;;
77722;SDS011;67811;42.656;23.394;2024-01-11T08:05:06;96.13;;;38.73;;
77722;SDS011;67811;42.656;23.394;2024-01-11T08:09:11;73.32;;;35.13;;
77722;SDS011;67811;42.656;23.394;2024-01-11T08:13:17;38.50;;;20.50;;
77722;SDS011;67811;42.656;23.394;2024-01-11T08:17:23;49.35;;;24.77;;
77722;SDS011;67811;42.656;23.394;2024-01-11T08:21:28;45.90;;;22.23;;
77722;SDS011;67811;42.656;23.394;2024-01-11T08:25:33;42.70;;;22.03;;
77722;SDS011;67811;42.656;23.394;2024-01-11T08:29:39;39.00;;;21.23;;
77722;SDS011;67811;42.656;23.394;2024-01-11T08:33:44;29.07;;;19.00;;
77722;SDS011;67811;42.656;23.394;2024-01-11T08:37:49;18.83;;;12.20;;
77722;SDS011;67811;42.656;23.394;2024-01-11T08:41:55;31.10;;;17.63;;
77722;SDS011;67811;42.656;23.394;2024-01-11T08:46:00;26.57;;;14.20;;
77722;SDS011;67811;42.656;23.394;2024-01-11T08:50:05;37.70;;;20.90;;
77722;SDS011;67811;42.656;23.394;2024-01-11T08:54:11;30.88;;;16.75;;
77722;SDS011;67811;42.656;23.394;2024-01-11T08:58:16;30.67;;;18.20;;
77722;SDS011;67811;42.656;23.394;2024-01-11T09:02:21;32.13;;;17.57;;
77722;SDS011;67811;42.656;23.394;2024-01-11T09:06:27;41.20;;;18.80;;
77722;SDS011;67811;42.656;23.394;2024-01-11T09:10:32;28.03;;;18.33;;
77722;SDS011;67811;42.656;23.394;2024-01-11T09:14:38;33.80;;;19.42;;
77722;SDS011;67811;42.656;23.394;2024-01-11T09:18:43;35.47;;;20.67;;
77722;SDS011;67811;42.656;23.394;2024-01-11T09:22:49;33.70;;;17.90;;
77722;SDS011;67811;42.656;23.394;2024-01-11T09:26:55;41.47;;;23.40;;
77722;SDS011;67811;42.656;23.394;2024-01-11T09:31:00;35.43;;;20.37;;
77722;SDS011;67811;42.656;23.394;2024-01-11T09:35:05;29.80;;;16.47;;
77722;SDS011;67811;42.656;23.394;2024-01-11T09:39:11;29.73;;;15.20;;
77722;SDS011;67811;42.656;23.394;2024-01-11T09:43:16;26.07;;;15.40;;
77722;SDS011;67811;42.656;23.394;2024-01-11T09:47:22;32.65;;;17.50;;
77722;SDS011;67811;42.656;23.394;2024-01-11T09:51:29;29.80;;;17.50;;
77722;SDS011;67811;42.656;23.394;2024-01-11T09:55:35;29.30;;;19.03;;
77722;SDS011;67811;42.656;23.394;2024-01-11T09:59:40;33.73;;;18.10;;
77722;SDS011;67811;42.656;23.394;2024-01-11T10:03:47;30.52;;;17.88;;
77722;SDS011;67811;42.656;23.394;2024-01-11T10:07:53;25.33;;;15.70;;
77722;SDS011;67811;42.656;23.394;2024-01-11T10:11:58;34.90;;;19.23;;
77722;SDS011;67811;42.656;23.394;2024-01-11T10:20:15;30.23;;;16.80;;
77722;SDS011;67811;42.656;23.394;2024-01-11T10:24:21;34.77;;;16.87;;
77722;SDS011;67811;42.656;23.394;2024-01-11T10:28:26;32.37;;;16.97;;
77722;SDS011;67811;42.656;23.394;2024-01-11T10:32:32;28.30;;;15.80;;
77722;SDS011;67811;42.656;23.394;2024-01-11T10:36:37;33.27;;;19.27;;
77722;SDS011;67811;42.656;23.394;2024-01-11T10:40:43;29.67;;;15.00;;
77722;SDS011;67811;42.656;23.394;2024-01-11T10:44:49;29.83;;;17.05;;
77722;SDS011;67811;42.656;23.394;2024-01-11T10:48:59;28.48;;;16.77;;
77722;SDS011;67811;42.656;23.394;2024-01-11T10:53:12;31.50;;;15.20;;
77722;SDS011;67811;42.656;23.394;2024-01-11T10:57:30;26.08;;;15.85;;
77722;SDS011;67811;42.656;23.394;2024-01-11T11:01:38;24.90;;;15.73;;
77722;SDS011;67811;42.656;23.394;2024-01-11T11:05:44;28.83;;;16.38;;
77722;SDS011;67811;42.656;23.394;2024-01-11T11:09:52;26.10;;;15.80;;
77722;SDS011;67811;42.656;23.394;2024-01-11T11:14:00;25.67;;;15.18;;
77722;SDS011;67811;42.656;23.394;2024-01-11T11:18:06;32.70;;;18.48;;
77722;SDS011;67811;42.656;23.394;2024-01-11T11:22:12;28.85;;;16.70;;
77722;SDS011;67811;42.656;23.394;2024-01-11T11:26:18;34.97;;;20.00;;
77722;SDS011;67811;42.656;23.394;2024-01-11T11:30:23;30.53;;;17.67;;
77722;SDS011;67811;42.656;23.394;2024-01-11T11:34:41;33.10;;;17.87;;
77722;SDS011;67811;42.656;23.394;2024-01-11T11:38:51;28.88;;;14.30;;
77722;SDS011;67811;42.656;23.394;2024-01-11T11:42:57;36.88;;;19.85;;
77722;SDS011;67811;42.656;23.394;2024-01-11T11:51:43;28.85;;;17.35;;
77722;SDS011;67811;42.656;23.394;2024-01-11T11:55:48;31.42;;;17.02;;
77722;SDS011;67811;42.656;23.394;2024-01-11T11:59:55;33.90;;;17.10;;
77722;SDS011;67811;42.656;23.394;2024-01-11T12:04:01;33.75;;;19.75;;
77722;SDS011;67811;42.656;23.394;2024-01-11T12:08:07;27.50;;;14.43;;
77722;SDS011;67811;42.656;23.394;2024-01-11T12:12:12;32.27;;;17.17;;
77722;SDS011;67811;42.656;23.394;2024-01-11T12:16:18;34.05;;;20.50;;
77722;SDS011;67811;42.656;23.394;2024-01-11T12:20:23;35.60;;;18.20;;
77722;SDS011;67811;42.656;23.394;2024-01-11T12:24:29;28.93;;;17.90;;
77722;SDS011;67811;42.656;23.394;2024-01-11T12:28:34;27.30;;;15.67;;
77722;SDS011;67811;42.656;23.394;2024-01-11T12:32:40;24.60;;;14.67;;
77722;SDS011;67811;42.656;23.394;2024-01-11T12:36:45;24.15;;;14.23;;
77722;SDS011;67811;42.656;23.394;2024-01-11T12:40:50;26.03;;;15.17;;
77722;SDS011;67811;42.656;23.394;2024-01-11T12:44:56;23.52;;;13.93;;
77722;SDS011;67811;42.656;23.394;2024-01-11T12:49:01;22.47;;;12.53;;
77722;SDS011;67811;42.656;23.394;2024-01-11T12:53:10;22.77;;;12.57;;
77722;SDS011;67811;42.656;23.394;2024-01-11T12:57:18;18.15;;;11.02;;
77722;SDS011;67811;42.656;23.394;2024-01-11T13:01:24;15.38;;;10.13;;
77722;SDS011;67811;42.656;23.394;2024-01-11T13:05:29;17.93;;;10.10;;
77722;SDS011;67811;42.656;23.394;2024-01-11T13:09:35;19.23;;;12.57;;
77722;SDS011;67811;42.656;23.394;2024-01-11T13:13:40;28.13;;;17.07;;
77722;SDS011;67811;42.656;23.394;2024-01-11T13:17:45;30.63;;;19.03;;
77722;SDS011;67811;42.656;23.394;2024-01-11T13:21:50;28.77;;;15.83;;
77722;SDS011;67811;42.656;23.394;2024-01-11T13:25:56;28.43;;;14.20;;
77722;SDS011;67811;42.656;23.394;2024-01-11T13:30:01;34.70;;;18.77;;
77722;SDS011;67811;42.656;23.394;2024-01-11T13:34:06;33.87;;;18.03;;
77722;SDS011;67811;42.656;23.394;2024-01-11T13:38:12;25.17;;;13.47;;
77722;SDS011;67811;42.656;23.394;2024-01-11T13:42:17;26.93;;;13.97;;
77722;SDS011;67811;42.656;23.394;2024-01-11T13:46:22;27.27;;;13.80;;
77722;SDS011;67811;42.656;23.394;2024-01-11T13:50:27;17.27;;;11.27;;
77722;SDS011;67811;42.656;23.394;2024-01-11T13:54:33;25.13;;;13.27;;
77722;SDS011;67811;42.656;23.394;2024-01-11T13:58:38;21.53;;;11.63;;
77722;SDS011;67811;42.656;23.394;2024-01-11T14:02:44;11.37;;;5.70;;
77722;SDS011;67811;42.656;23.394;2024-01-11T14:06:50;7.07;;;3.97;;
77722;SDS011;67811;42.656;23.394;2024-01-11T14:10:55;15.80;;;6.13;;
77722;SDS011;67811;42.656;23.394;2024-01-11T14:15:01;7.53;;;3.33;;
77722;SDS011;67811;42.656;23.394;2024-01-11T14:19:07;6.68;;;3.20;;
77722;SDS011;67811;42.656;23.394;2024-01-11T14:23:13;8.03;;;3.87;;
77722;SDS011;67811;42.656;23.394;2024-01-11T14:27:19;5.87;;;2.93;;
77722;SDS011;67811;42.656;23.394;2024-01-11T14:31:25;5.38;;;3.05;;
77722;SDS011;67811;42.656;23.394;2024-01-11T14:35:30;8.00;;;3.83;;
77722;SDS011;67811;42.656;23.394;2024-01-11T14:39:36;7.97;;;4.13;;
77722;SDS011;67811;42.656;23.394;2024-01-11T14:43:41;8.53;;;3.87;;
77722;SDS011;67811;42.656;23.394;2024-01-11T14:47:46;7.23;;;3.00;;
77722;SDS011;67811;42.656;23.394;2024-01-11T14:51:51;6.37;;;3.33;;
77722;SDS011;67811;42.656;23.394;2024-01-11T14:55:57;10.43;;;4.03;;
77722;SDS011;67811;42.656;23.394;2024-01-11T15:00:02;6.77;;;3.20;;
77722;SDS011;67811;42.656;23.394;2024-01-11T15:04:08;9.15;;;4.57;;
77722;SDS011;67811;42.656;23.394;2024-01-11T15:08:13;9.57;;;5.17;;
77722;SDS011;67811;42.656;23.394;2024-01-11T15:12:18;10.33;;;3.90;;
77722;SDS011;67811;42.656;23.394;2024-01-11T15:16:23;7.73;;;3.90;;
77722;SDS011;67811;42.656;23.394;2024-01-11T15:20:29;7.33;;;4.57;;
77722;SDS011;67811;42.656;23.394;2024-01-11T15:24:34;8.63;;;3.83;;
77722;SDS011;67811;42.656;23.394;2024-01-11T15:28:39;8.27;;;4.27;;
77722;SDS011;67811;42.656;23.394;2024-01-11T15:32:44;11.83;;;5.63;;
77722;SDS011;67811;42.656;23.394;2024-01-11T15:36:50;9.43;;;4.53;;
77722;SDS011;67811;42.656;23.394;2024-01-11T15:40:55;11.90;;;6.07;;
77722;SDS011;67811;42.656;23.394;2024-01-11T15:45:01;12.47;;;5.57;;
77722;SDS011;67811;42.656;23.394;2024-01-11T15:49:07;9.70;;;5.28;;
77722;SDS011;67811;42.656;23.394;2024-01-11T15:53:12;12.47;;;6.87;;
77722;SDS011;67811;42.656;23.394;2024-01-11T15:57:17;12.53;;;6.10;;
77722;SDS011;67811;42.656;23.394;2024-01-11T16:01:22;9.90;;;5.17;;
77722;SDS011;67811;42.656;23.394;2024-01-11T16:05:28;14.57;;;5.70;;
77722;SDS011;67811;42.656;23.394;2024-01-11T16:09:33;7.23;;;4.40;;
77722;SDS011;67811;42.656;23.394;2024-01-11T16:13:38;9.00;;;5.43;;
77722;SDS011;67811;42.656;23.394;2024-01-11T16:17:43;11.23;;;6.50;;
77722;SDS011;67811;42.656;23.394;2024-01-11T16:21:49;11.43;;;5.70;;
77722;SDS011;67811;42.656;23.394;2024-01-11T16:25:54;9.23;;;5.23;;
77722;SDS011;67811;42.656;23.394;2024-01-11T16:29:59;10.17;;;5.97;;
77722;SDS011;67811;42.656;23.394;2024-01-11T16:34:05;11.73;;;6.80;;
77722;SDS011;67811;42.656;23.394;2024-01-11T16:38:10;11.10;;;5.97;;
77722;SDS011;67811;42.656;23.394;2024-01-11T16:42:15;10.57;;;4.67;;
77722;SDS011;67811;42.656;23.394;2024-01-11T16:46:20;8.57;;;5.23;;
77722;SDS011;67811;42.656;23.394;2024-01-11T16:50:26;10.10;;;5.93;;
77722;SDS011;67811;42.656;23.394;2024-01-11T16:54:31;9.37;;;5.23;;
77722;SDS011;67811;42.656;23.394;2024-01-11T16:58:36;9.90;;;5.07;;
77722;SDS011;67811;42.656;23.394;2024-01-11T17:02:41;9.27;;;5.47;;
77722;SDS011;67811;42.656;23.394;2024-01-11T17:06:47;8.87;;;5.17;;
77722;SDS011;67811;42.656;23.394;2024-01-11T17:10:52;10.53;;;6.00;;
77722;SDS011;67811;42.656;23.394;2024-01-11T17:14:57;7.87;;;4.03;;
77722;SDS011;67811;42.656;23.394;2024-01-11T17:19:03;10.67;;;5.33;;
77722;SDS011;67811;42.656;23.394;2024-01-11T17:23:08;13.90;;;6.50;;
77722;SDS011;67811;42.656;23.394;2024-01-11T17:27:13;13.03;;;5.10;;
77722;SDS011;67811;42.656;23.394;2024-01-11T17:31:18;11.63;;;4.70;;
77722;SDS011;67811;42.656;23.394;2024-01-11T17:35:24;6.17;;;3.43;;
77722;SDS011;67811;42.656;23.394;2024-01-11T17:39:29;8.10;;;4.03;;
77722;SDS011;67811;42.656;23.394;2024-01-11T17:43:34;8.87;;;5.13;;
77722;SDS011;67811;42.656;23.394;2024-01-11T17:47:43;8.55;;;4.75;;
77722;SDS011;67811;42.656;23.394;2024-01-11T17:51:48;10.80;;;4.35;;
77722;SDS011;67811;42.656;23.394;2024-01-11T17:55:54;9.57;;;4.33;;
77722;SDS011;67811;42.656;23.394;2024-01-11T17:59:59;7.63;;;4.30;;
77722;SDS011;67811;42.656;23.394;2024-01-11T18:04:05;7.37;;;3.27;;
77722;SDS011;67811;42.656;23.394;2024-01-11T18:08:11;9.30;;;4.95;;
77722;SDS011;67811;42.656;23.394;2024-01-11T18:12:16;12.57;;;7.47;;
77722;SDS011;67811;42.656;23.394;2024-01-11T18:16:21;10.13;;;5.27;;
77722;SDS011;67811;42.656;23.394;2024-01-11T18:20:27;12.57;;;5.80;;
77722;SDS011;67811;42.656;23.394;2024-01-11T18:24:32;12.40;;;6.27;;
77722;SDS011;67811;42.656;23.394;2024-01-11T18:28:37;7.63;;;4.30;;
77722;SDS011;67811;42.656;23.394;2024-01-11T18:32:42;11.33;;;6.17;;
77722;SDS011;67811;42.656;23.394;2024-01-11T18:36:48;12.70;;;7.47;;
77722;SDS011;67811;42.656;23.394;2024-01-11T18:40:53;11.17;;;6.93;;
77722;SDS011;67811;42.656;23.394;2024-01-11T18:44:58;15.40;;;8.23;;
77722;SDS011;67811;42.656;23.394;2024-01-11T18:49:04;7.43;;;4.13;;
77722;SDS011;67811;42.656;23.394;2024-01-11T18:53:09;12.90;;;7.33;;
77722;SDS011;67811;42.656;23.394;2024-01-11T18:57:15;10.43;;;5.38;;
77722;SDS011;67811;42.656;23.394;2024-01-11T19:01:20;10.97;;;5.70;;
77722;SDS011;67811;42.656;23.394;2024-01-11T19:05:25;17.10;;;8.53;;
77722;SDS011;67811;42.656;23.394;2024-01-11T19:09:30;11.70;;;6.73;;
77722;SDS011;67811;42.656;23.394;2024-01-11T19:13:36;7.00;;;4.70;;
77722;SDS011;67811;42.656;23.394;2024-01-11T19:17:41;10.07;;;5.90;;
77722;SDS011;67811;42.656;23.394;2024-01-11T19:21:46;14.50;;;7.30;;
77722;SDS011;67811;42.656;23.394;2024-01-11T19:25:55;8.67;;;5.03;;
77722;SDS011;67811;42.656;23.394;2024-01-11T19:30:01;11.75;;;6.88;;
77722;SDS011;67811;42.656;23.394;2024-01-11T19:34:06;9.77;;;5.33;;
77722;SDS011;67811;42.656;23.394;2024-01-11T19:38:11;13.83;;;8.03;;
77722;SDS011;67811;42.656;23.394;2024-01-11T19:42:17;8.93;;;4.90;;
77722;SDS011;67811;42.656;23.394;2024-01-11T19:46:22;10.03;;;6.10;;
77722;SDS011;67811;42.656;23.394;2024-01-11T19:50:28;10.83;;;6.07;;
77722;SDS011;67811;42.656;23.394;2024-01-11T19:54:34;15.00;;;6.72;;
77722;SDS011;67811;42.656;23.394;2024-01-11T19:58:39;5.82;;;2.42;;
77722;SDS011;67811;42.656;23.394;2024-01-11T20:02:45;12.53;;;5.70;;
77722;SDS011;67811;42.656;23.394;2024-01-11T20:06:50;10.27;;;5.67;;
77722;SDS011;67811;42.656;23.394;2024-01-11T20:10:55;8.67;;;5.20;;
77722;SDS011;67811;42.656;23.394;2024-01-11T20:15:01;5.78;;;3.28;;
77722;SDS011;67811;42.656;23.394;2024-01-11T20:19:06;9.40;;;5.00;;
77722;SDS011;67811;42.656;23.394;2024-01-11T20:23:12;12.77;;;7.00;;
77722;SDS011;67811;42.656;23.394;2024-01-11T20:27:17;11.73;;;5.28;;
77722;SDS011;67811;42.656;23.394;2024-01-11T20:31:22;11.07;;;5.23;;
77722;SDS011;67811;42.656;23.394;2024-01-11T20:35:28;13.07;;;6.33;;
77722;SDS011;67811;42.656;23.394;2024-01-11T20:39:33;9.07;;;5.60;;
77722;SDS011;67811;42.656;23.394;2024-01-11T20:43:38;7.83;;;4.33;;
77722;SDS011;67811;42.656;23.394;2024-01-11T20:47:44;12.60;;;5.57;;
77722;SDS011;67811;42.656;23.394;2024-01-11T20:51:49;10.03;;;5.57;;
77722;SDS011;67811;42.656;23.394;2024-01-11T20:55:54;10.03;;;6.10;;
77722;SDS011;67811;42.656;23.394;2024-01-11T20:59:59;10.90;;;5.40;;
77722;SDS011;67811;42.656;23.394;2024-01-11T21:04:05;11.13;;;6.50;;
77722;SDS011;67811;42.656;23.394;2024-01-11T21:08:10;11.17;;;6.13;;
77722;SDS011;67811;42.656;23.394;2024-01-11T21:12:15;13.33;;;6.73;;
77722;SDS011;67811;42.656;23.394;2024-01-11T21:16:21;10.27;;;5.70;;
77722;SDS011;67811;42.656;23.394;2024-01-11T21:20:26;9.53;;;5.30;;
77722;SDS011;67811;42.656;23.394;2024-01-11T21:24:31;9.53;;;5.03;;
77722;SDS011;67811;42.656;23.394;2024-01-11T21:28:37;7.40;;;4.63;;
77722;SDS011;67811;42.656;23.394;2024-01-11T21:32:42;10.00;;;6.50;;
77722;SDS011;67811;42.656;23.394;2024-01-11T21:36:47;12.07;;;7.43;;
77722;SDS011;67811;42.656;23.394;2024-01-11T21:40:52;9.67;;;5.67;;
77722;SDS011;67811;42.656;23.394;2024-01-11T21:44:58;14.17;;;6.80;;
77722;SDS011;67811;42.656;23.394;2024-01-11T21:49:03;14.97;;;7.40;;
77722;SDS011;67811;42.656;23.394;2024-01-11T21:53:08;13.37;;;6.13;;
77722;SDS011;67811;42.656;23.394;2024-01-11T21:57:14;11.30;;;6.50;;
77722;SDS011;67811;42.656;23.394;2024-01-11T22:01:19;15.13;;;6.90;;
77722;SDS011;67811;42.656;23.394;2024-01-11T22:05:25;10.30;;;5.70;;
77722;SDS011;67811;42.656;23.394;2024-01-11T22:09:30;11.50;;;6.03;;
77722;SDS011;67811;42.656;23.394;2024-01-11T22:13:35;13.57;;;6.63;;
77722;SDS011;67811;42.656;23.394;2024-01-11T22:17:40;12.40;;;5.97;;
77722;SDS011;67811;42.656;23.394;2024-01-11T22:21:46;10.47;;;5.17;;
77722;SDS011;67811;42.656;23.394;2024-01-11T22:25:51;6.60;;;3.90;;
77722;SDS011;67811;42.656;23.394;2024-01-11T22:29:56;18.30;;;8.37;;
77722;SDS011;67811;42.656;23.394;2024-01-11T22:34:02;15.87;;;7.17;;
77722;SDS011;67811;42.656;23.394;2024-01-11T22:38:07;14.48;;;7.35;;
77722;SDS011;67811;42.656;23.394;2024-01-11T22:42:13;15.30;;;8.47;;
77722;SDS011;67811;42.656;23.394;2024-01-11T22:46:18;12.60;;;6.13;;
77722;SDS011;67811;42.656;23.394;2024-01-11T22:50:23;15.40;;;9.10;;
77722;SDS011;67811;42.656;23.394;2024-01-11T22:54:28;17.73;;;7.77;;
77722;SDS011;67811;42.656;23.394;2024-01-11T22:58:34;20.87;;;8.00;;
77722;SDS011;67811;42.656;23.394;2024-01-11T23:02:39;10.67;;;6.97;;
77722;SDS011;67811;42.656;23.394;2024-01-11T23:06:44;11.47;;;6.80;;
77722;SDS011;67811;42.656;23.394;2024-01-11T23:10:50;17.73;;;9.53;;
77722;SDS011;67811;42.656;23.394;2024-01-11T23:14:55;10.27;;;5.67;;
77722;SDS011;67811;42.656;23.394;2024-01-11T23:19:00;10.87;;;6.03;;
77722;SDS011;67811;42.656;23.394;2024-01-11T23:23:05;9.83;;;5.50;;
77722;SDS011;67811;42.656;23.394;2024-01-11T23:27:11;7.07;;;4.37;;
77722;SDS011;67811;42.656;23.394;2024-01-11T23:31:16;17.97;;;8.97;;
77722;SDS011;67811;42.656;23.394;2024-01-11T23:35:21;17.90;;;7.63;;
77722;SDS011;67811;42.656;23.394;2024-01-11T23:39:26;7.40;;;5.13;;
77722;SDS011;67811;42.656;23.394;2024-01-11T23:43:32;9.83;;;5.23;;
77722;SDS011;67811;42.656;23.394;2024-01-11T23:47:37;2.23;;;1.60;;
77722;SDS011;67811;42.656;23.394;2024-01-11T23:51:42;16.83;;;9.00;;
77722;SDS011;67811;42.656;23.394;2024-01-11T23:55:48;13.43;;;6.37;;
77722;SDS011;67811;42.656;23.394;2024-01-11T23:59:53;20.57;;;10.40;;
